createdAt,value
2019-06-10T17:43:25.176Z,5.50
2019-06-10T17:45:53.919Z,3.93
2019-06-10T17:48:24.269Z,4.50
2019-06-10T17:50:52.918Z,3.37
2019-06-10T19:35:58.603Z,3.67
2019-06-10T19:38:28.273Z,3.30
2019-06-10T19:40:58.292Z,3.20
2019-06-10T19:43:28.311Z,2.97
2019-06-10T19:45:58.246Z,3.53
2019-06-10T19:48:27.997Z,3.60
2019-06-10T19:50:57.412Z,4.47
2019-06-10T19:53:26.825Z,3.87
2019-06-10T19:55:56.254Z,4.00
2019-06-10T19:58:25.672Z,4.93
2019-06-10T20:00:55.050Z,4.93
2019-06-10T20:03:24.450Z,5.30
2019-06-10T20:05:53.931Z,5.33
2019-06-10T20:08:23.331Z,5.40
2019-06-10T20:10:53.265Z,5.53
2019-06-10T20:13:23.249Z,5.40
2019-06-10T20:15:52.724Z,5.97
2019-06-10T20:18:22.753Z,5.33
2019-06-10T20:20:54.018Z,5.40
2019-06-10T20:23:23.609Z,5.37
2019-06-10T20:25:53.007Z,5.70
2019-06-10T20:28:22.693Z,6.10
2019-06-10T20:30:53.036Z,6.55
2019-06-10T20:33:36.573Z,6.28
2019-06-10T20:36:08.039Z,7.57
2019-06-10T20:38:37.765Z,7.47
2019-06-10T20:41:07.447Z,6.83
2019-06-10T20:43:37.282Z,6.13
2019-06-10T20:46:08.061Z,6.00
2019-06-10T20:48:38.800Z,6.40
2019-06-10T20:51:08.422Z,6.13
2019-06-10T20:53:38.151Z,6.50
2019-06-10T20:56:07.735Z,6.43
2019-06-10T20:58:37.132Z,6.93
2019-06-10T21:01:06.574Z,8.00
2019-06-10T21:03:35.936Z,7.73
2019-06-10T21:06:05.710Z,7.80
2019-06-10T21:08:35.231Z,8.77
2019-06-10T21:11:04.679Z,10.00
2019-06-10T21:13:34.055Z,9.83
2019-06-10T21:16:03.958Z,9.73
2019-06-10T21:18:33.381Z,9.90
2019-06-10T21:21:02.689Z,10.60
2019-06-10T21:23:31.993Z,9.93
2019-06-10T21:26:02.848Z,9.50
2019-06-10T21:28:32.849Z,10.77
2019-06-10T21:31:03.019Z,10.25
2019-06-10T21:33:33.353Z,9.50
2019-06-10T21:36:03.879Z,9.38
2019-06-10T21:38:33.623Z,10.80
2019-06-10T21:41:03.399Z,10.10
2019-06-10T21:43:33.264Z,9.85
2019-06-10T21:46:03.637Z,10.50
2019-06-10T21:48:33.376Z,10.30
2019-06-10T21:51:02.923Z,10.28
2019-06-10T21:53:32.171Z,9.30
2019-06-10T21:56:01.578Z,10.43
2019-06-10T21:58:32.784Z,9.50
2019-06-10T22:01:12.624Z,9.60
2019-06-10T22:03:33.591Z,9.57
2019-06-10T22:06:02.982Z,10.60
2019-06-10T22:08:33.478Z,9.47
2019-06-10T22:11:03.137Z,10.40
2019-06-10T22:13:32.910Z,9.83
2019-06-10T22:16:03.234Z,11.55
2019-06-10T22:18:32.876Z,9.13
2019-06-10T22:21:02.905Z,9.70
2019-06-10T22:23:33.075Z,11.40
2019-06-10T22:26:02.911Z,10.20
2019-06-10T22:28:32.916Z,10.93
2019-06-10T22:31:16.067Z,11.03
2019-06-10T22:33:33.369Z,11.40
2019-06-10T22:36:02.790Z,11.40
2019-06-10T22:38:32.851Z,11.73
2019-06-10T22:41:03.302Z,12.43
2019-06-10T22:43:32.926Z,11.08
2019-06-10T22:46:03.925Z,11.30
2019-06-10T22:48:33.470Z,10.37
2019-06-10T22:51:02.884Z,12.17
2019-06-10T22:53:33.403Z,11.87
2019-06-10T22:56:03.135Z,13.27
2019-06-10T22:58:32.546Z,13.75
2019-06-10T23:01:04.206Z,11.20
2019-06-10T23:03:33.213Z,11.43
2019-06-10T23:06:02.780Z,11.70
2019-06-10T23:08:33.395Z,12.80
2019-06-10T23:11:03.132Z,10.53
2019-06-10T23:13:32.649Z,8.70
2019-06-10T23:16:02.601Z,8.53
2019-06-10T23:18:33.070Z,8.53
2019-06-10T23:21:04.320Z,7.73
2019-06-10T23:23:33.603Z,7.43
2019-06-10T23:26:03.166Z,7.43
2019-06-10T23:28:32.847Z,7.67
2019-06-10T23:31:04.904Z,7.60
2019-06-10T23:33:33.399Z,8.23
2019-06-10T23:36:04.097Z,8.53
2019-06-10T23:38:33.724Z,9.27
2019-06-10T23:41:03.712Z,8.80
2019-06-10T23:43:33.540Z,8.08
2019-06-10T23:46:04.339Z,6.87
2019-06-10T23:48:34.082Z,7.33
2019-06-10T23:51:05.094Z,6.87
2019-06-10T23:53:34.616Z,7.67
2019-06-10T23:56:05.077Z,7.40
2019-06-10T23:58:34.606Z,6.23
